createdAt,value
2022-09-22T00:00:57.141Z,1.33
2022-09-22T00:02:38.902Z,1.27
2022-09-22T00:04:20.641Z,1.05
2022-09-22T00:06:05.994Z,1.20
2022-09-22T00:07:47.706Z,0.98
2022-09-22T00:09:29.506Z,1.02
2022-09-22T00:11:13.226Z,1.23
2022-09-22T00:12:54.993Z,1.30
2022-09-22T00:14:36.741Z,1.00
2022-09-22T00:16:19.744Z,1.00
2022-09-22T00:18:01.657Z,1.30
2022-09-22T00:19:43.359Z,1.05
2022-09-22T00:21:26.775Z,1.00
2022-09-22T00:23:08.562Z,0.85
2022-09-22T00:24:50.315Z,0.80
2022-09-22T00:26:32.165Z,1.10
2022-09-22T00:28:13.906Z,0.90
2022-09-22T00:29:55.602Z,0.80
2022-09-22T00:31:39.027Z,0.82
2022-09-22T00:33:20.838Z,0.80
2022-09-22T00:35:02.720Z,0.52
2022-09-22T00:36:46.560Z,0.98
2022-09-22T00:38:28.481Z,0.63
2022-09-22T00:40:10.430Z,0.70
2022-09-22T00:41:52.865Z,0.60
2022-09-22T00:43:36.290Z,1.27
2022-09-22T00:45:18.154Z,0.63
2022-09-22T00:47:05.488Z,0.85
2022-09-22T00:49:00.738Z,0.68
2022-09-22T00:50:43.059Z,0.63
2022-09-22T00:52:30.169Z,0.70
2022-09-22T00:54:16.634Z,1.33
2022-09-22T00:56:02.947Z,0.52
2022-09-22T00:57:47.465Z,0.35
2022-09-22T00:59:29.582Z,0.45
2022-09-22T01:02:57.698Z,0.52
2022-09-22T01:04:41.085Z,0.60
2022-09-22T01:06:27.605Z,0.68
2022-09-22T01:08:11.940Z,0.70
2022-09-22T01:09:53.726Z,0.60
2022-09-22T01:11:38.894Z,0.60
2022-09-22T01:13:26.901Z,0.55
2022-09-22T01:15:20.551Z,0.63
2022-09-22T01:17:09.414Z,0.45
2022-09-22T01:19:03.886Z,0.40
2022-09-22T01:21:12.475Z,0.50
2022-09-22T01:23:16.276Z,0.68
2022-09-22T01:25:13.586Z,0.40
2022-09-22T01:27:48.559Z,0.50
2022-09-22T01:30:09.626Z,0.40
2022-09-22T01:31:57.735Z,0.88
2022-09-22T01:33:44.634Z,0.50
2022-09-22T01:35:30.256Z,0.80
2022-09-22T01:37:17.174Z,0.32
2022-09-22T01:39:05.737Z,0.50
2022-09-22T01:40:52.442Z,0.40
2022-09-22T01:42:40.062Z,0.40
2022-09-22T01:44:28.260Z,0.52
2022-09-22T01:46:14.613Z,0.30
2022-09-22T01:48:01.545Z,0.47
2022-09-22T01:49:48.633Z,0.30
2022-09-22T01:51:36.391Z,0.30
2022-09-22T01:53:22.314Z,0.40
2022-09-22T01:55:09.348Z,0.38
2022-09-22T01:56:57.466Z,0.45
2022-09-22T01:58:42.312Z,0.40
2022-09-22T02:00:24.700Z,0.40
2022-09-22T02:02:16.142Z,0.20
2022-09-22T02:04:05.565Z,0.30
2022-09-22T02:05:52.029Z,0.30
2022-09-22T02:07:38.516Z,0.35
2022-09-22T02:09:23.752Z,0.38
2022-09-22T02:11:09.322Z,0.40
2022-09-22T02:12:51.355Z,0.25
2022-09-22T02:16:17.477Z,0.20
2022-09-22T02:18:05.605Z,0.28
2022-09-22T02:19:48.781Z,0.38
2022-09-22T02:21:30.882Z,0.40
2022-09-22T02:24:54.537Z,0.30
2022-09-22T02:26:36.871Z,0.25
2022-09-22T02:28:21.791Z,0.30
2022-09-22T02:30:06.342Z,0.20
2022-09-22T02:31:48.464Z,0.20
2022-09-22T02:35:21.936Z,0.57
2022-09-22T02:37:08.450Z,0.50
2022-09-22T02:38:59.101Z,0.38
2022-09-22T02:40:46.688Z,0.20
2022-09-22T02:42:32.167Z,0.17
2022-09-22T02:44:18.682Z,0.25
2022-09-22T02:46:08.756Z,0.20
2022-09-22T02:47:54.216Z,0.82
2022-09-22T02:49:36.607Z,0.10
2022-09-22T02:51:19.811Z,0.20
2022-09-22T02:53:03.286Z,0.20
2022-09-22T02:54:44.991Z,0.40
2022-09-22T02:56:26.698Z,0.20
2022-09-22T02:58:08.837Z,0.40
2022-09-22T03:01:32.190Z,0.25
2022-09-22T03:03:14.031Z,0.17
2022-09-22T03:04:55.778Z,0.20
2022-09-22T03:06:38.853Z,0.30
2022-09-22T03:08:20.594Z,0.40
2022-09-22T03:10:02.317Z,0.22
2022-09-22T03:11:44.561Z,0.10
2022-09-22T03:13:26.282Z,0.10
2022-09-22T03:15:09.042Z,0.20
2022-09-22T03:16:50.755Z,0.10
2022-09-22T03:18:32.516Z,0.32
2022-09-22T03:20:14.273Z,0.40
2022-09-22T03:21:57.314Z,0.30
2022-09-22T03:23:39.042Z,0.08
2022-09-22T03:25:20.900Z,0.52
2022-09-22T03:27:02.612Z,0.17
2022-09-22T03:28:44.343Z,0.28
2022-09-22T03:30:26.199Z,0.35
2022-09-22T03:32:07.944Z,0.25
2022-09-22T03:33:52.712Z,0.20
2022-09-22T03:35:34.819Z,0.20
2022-09-22T03:37:17.948Z,0.30
2022-09-22T03:38:59.792Z,0.10
2022-09-22T03:40:41.688Z,0.10
2022-09-22T03:42:23.452Z,0.10
2022-09-22T03:44:06.369Z,0.13
2022-09-22T03:45:48.141Z,0.22
2022-09-22T03:47:29.963Z,0.32
2022-09-22T03:49:12.067Z,0.20
2022-09-22T03:52:36.680Z,0.20
2022-09-22T03:54:18.463Z,0.13
2022-09-22T03:56:07.482Z,0.20
2022-09-22T03:57:49.178Z,0.10
2022-09-22T03:59:31.227Z,0.10
2022-09-22T04:02:54.694Z,0.10
2022-09-22T04:04:36.544Z,0.30
2022-09-22T04:06:18.290Z,0.25
2022-09-22T04:08:01.730Z,0.20
2022-09-22T04:09:43.496Z,0.20
2022-09-22T04:11:25.310Z,0.22
2022-09-22T04:13:07.005Z,0.10
2022-09-22T04:14:48.736Z,0.20
2022-09-22T04:16:30.650Z,0.30
2022-09-22T04:18:12.474Z,0.30
2022-09-22T04:19:54.190Z,0.10
2022-09-22T04:21:35.938Z,0.10
2022-09-22T04:23:18.987Z,0.32
2022-09-22T04:25:00.718Z,0.20
2022-09-22T04:26:56.642Z,0.10
2022-09-22T04:28:44.379Z,0.10
2022-09-22T04:30:26.167Z,0.00
2022-09-22T04:32:07.958Z,0.15
2022-09-22T04:33:49.670Z,0.10
2022-09-22T04:35:31.790Z,0.13
2022-09-22T04:38:56.588Z,0.20
2022-09-22T04:40:38.403Z,0.10
2022-09-22T04:42:20.255Z,0.17
2022-09-22T04:44:02.192Z,0.10
2022-09-22T04:45:44.708Z,0.10
2022-09-22T04:47:26.451Z,0.28
2022-09-22T04:49:08.160Z,0.20
2022-09-22T04:50:49.916Z,0.10
2022-09-22T04:52:31.639Z,0.08
2022-09-22T04:54:15.063Z,0.10
2022-09-22T04:55:56.807Z,0.10
2022-09-22T04:57:38.667Z,0.20
2022-09-22T04:59:20.386Z,0.10
2022-09-22T05:01:03.245Z,0.17
2022-09-22T05:02:45.646Z,0.35
2022-09-22T05:04:27.366Z,0.10
2022-09-22T05:06:09.094Z,0.10
2022-09-22T05:07:52.104Z,0.10
2022-09-22T05:09:35.159Z,0.00
2022-09-22T05:11:16.905Z,0.20
2022-09-22T05:12:58.772Z,0.17
2022-09-22T05:14:40.475Z,0.30
2022-09-22T05:16:22.209Z,0.20
2022-09-22T05:18:04.033Z,0.40
2022-09-22T05:19:45.744Z,0.15
2022-09-22T05:21:27.590Z,0.55
2022-09-22T05:23:09.301Z,0.00
2022-09-22T05:24:52.359Z,0.28
2022-09-22T05:26:34.083Z,0.13
2022-09-22T05:28:15.785Z,0.13
2022-09-22T05:29:57.491Z,0.45
2022-09-22T05:31:39.279Z,0.22
2022-09-22T05:33:21.045Z,0.32
2022-09-22T05:35:02.761Z,0.30
2022-09-22T05:36:44.495Z,0.25
2022-09-22T05:38:26.199Z,0.28
2022-09-22T05:40:10.491Z,0.32
2022-09-22T05:41:52.342Z,0.40
2022-09-22T05:43:34.074Z,0.28
2022-09-22T05:45:16.917Z,0.05
2022-09-22T05:46:58.658Z,0.17
2022-09-22T05:48:40.590Z,1.15
2022-09-22T05:50:22.378Z,0.10
2022-09-22T05:52:04.280Z,0.20
2022-09-22T05:53:46.222Z,0.22
2022-09-22T05:55:29.499Z,0.20
2022-09-22T05:57:11.335Z,0.65
2022-09-22T05:58:53.056Z,0.20
2022-09-22T06:00:35.060Z,0.10
2022-09-22T06:02:25.740Z,0.15
2022-09-22T06:04:08.387Z,0.30
2022-09-22T06:05:50.245Z,0.20
2022-09-22T06:07:32.131Z,0.15
2022-09-22T06:09:13.941Z,0.10
2022-09-22T06:10:57.017Z,0.68
2022-09-22T06:12:39.083Z,0.10
2022-09-22T06:14:20.898Z,0.28
2022-09-22T06:16:03.408Z,0.30
2022-09-22T06:17:45.230Z,0.10
2022-09-22T06:19:27.155Z,1.05
2022-09-22T06:21:08.997Z,0.28
2022-09-22T06:22:50.767Z,0.80
2022-09-22T06:24:32.792Z,0.30
2022-09-22T06:26:15.987Z,0.22
2022-09-22T06:28:02.037Z,0.10
2022-09-22T06:29:43.911Z,0.28
2022-09-22T06:31:25.711Z,0.10
2022-09-22T06:33:07.736Z,0.10
2022-09-22T06:34:49.448Z,0.20
2022-09-22T06:36:31.213Z,0.10
2022-09-22T06:38:14.625Z,0.30
2022-09-22T06:39:56.481Z,0.10
2022-09-22T06:41:39.800Z,0.05
2022-09-22T06:43:21.743Z,0.25
2022-09-22T06:45:03.886Z,0.30
2022-09-22T06:48:27.415Z,0.15
2022-09-22T06:50:09.444Z,0.15
2022-09-22T06:51:51.187Z,0.00
2022-09-22T06:53:32.923Z,0.30
2022-09-22T06:55:14.846Z,0.03
2022-09-22T06:56:57.967Z,0.10
2022-09-22T06:59:05.553Z,0.25
2022-09-22T07:00:42.067Z,0.20
2022-09-22T07:02:24.006Z,0.10
2022-09-22T07:04:06.235Z,0.10
2022-09-22T07:05:55.299Z,0.10
2022-09-22T07:07:37.068Z,0.60
2022-09-22T07:09:19.061Z,0.38
2022-09-22T07:14:26.628Z,0.40
2022-09-22T07:16:10.282Z,0.15
2022-09-22T07:17:52.254Z,0.10
2022-09-22T07:19:34.005Z,0.20
2022-09-22T07:21:17.541Z,0.30
2022-09-22T07:22:59.250Z,0.15
2022-09-22T07:24:41.096Z,0.20
2022-09-22T07:26:24.604Z,0.30
2022-09-22T07:28:07.796Z,0.30
2022-09-22T07:29:49.696Z,0.38
2022-09-22T07:31:32.274Z,0.10
2022-09-22T07:33:14.136Z,0.20
2022-09-22T07:34:55.963Z,0.20
2022-09-22T07:36:38.125Z,0.25
2022-09-22T07:40:01.912Z,0.28
2022-09-22T07:43:27.299Z,0.20
2022-09-22T07:45:15.552Z,0.30
2022-09-22T07:46:57.499Z,0.38
2022-09-22T07:48:39.755Z,0.30
2022-09-22T07:50:21.677Z,0.30
2022-09-22T07:52:03.652Z,1.00
2022-09-22T07:53:47.780Z,0.60
2022-09-22T07:55:29.542Z,0.20
2022-09-22T07:57:11.421Z,0.50
2022-09-22T07:58:54.919Z,0.50
2022-09-22T08:00:36.779Z,0.63
2022-09-22T08:02:18.615Z,0.50
2022-09-22T08:04:01.261Z,0.40
2022-09-22T08:05:43.349Z,0.15
2022-09-22T08:09:06.914Z,0.20
2022-09-22T08:10:48.790Z,0.28
2022-09-22T08:12:30.500Z,0.20
2022-09-22T08:14:14.212Z,0.20
2022-09-22T08:15:55.994Z,0.30
2022-09-22T08:17:37.785Z,0.20
2022-09-22T08:19:21.767Z,0.25
2022-09-22T08:21:03.735Z,0.60
2022-09-22T08:22:51.058Z,0.50
2022-09-22T08:24:32.775Z,0.20
2022-09-22T08:26:14.594Z,0.22
2022-09-22T08:27:56.355Z,0.30
2022-09-22T08:29:39.455Z,0.20
2022-09-22T08:31:22.680Z,0.30
2022-09-22T08:33:04.603Z,0.60
2022-09-22T08:34:46.404Z,0.20
2022-09-22T08:36:28.528Z,0.68
2022-09-22T08:39:54.765Z,0.43
2022-09-22T08:41:45.109Z,0.20
2022-09-22T08:43:27.390Z,0.40
2022-09-22T08:45:26.985Z,0.50
2022-09-22T08:47:15.254Z,0.60
2022-09-22T08:49:03.031Z,0.73
2022-09-22T08:50:49.158Z,0.77
2022-09-22T08:52:35.813Z,0.60
2022-09-22T08:54:17.920Z,0.32
2022-09-22T08:57:59.494Z,0.68
2022-09-22T08:59:46.000Z,0.38
2022-09-22T09:02:07.943Z,0.30
2022-09-22T09:03:57.371Z,0.57
2022-09-22T09:05:57.295Z,0.45
2022-09-22T09:07:48.554Z,0.38
2022-09-22T09:09:46.101Z,0.35
2022-09-22T09:11:56.039Z,0.30
2022-09-22T09:13:52.942Z,0.40
2022-09-22T09:15:45.154Z,0.38
2022-09-22T09:17:30.401Z,0.50
2022-09-22T09:19:17.528Z,0.68
2022-09-22T09:21:02.642Z,0.43
2022-09-22T09:22:48.857Z,1.10
2022-09-22T09:26:34.787Z,0.35
2022-09-22T09:30:06.000Z,1.02
2022-09-22T09:31:50.948Z,0.52
2022-09-22T09:33:42.902Z,0.57
2022-09-22T09:35:39.510Z,0.70
2022-09-22T09:37:24.187Z,0.60
2022-09-22T09:39:13.681Z,0.65
2022-09-22T09:41:01.220Z,1.25
2022-09-22T09:42:44.603Z,0.50
2022-09-22T09:44:30.128Z,0.52
2022-09-22T09:46:19.278Z,0.50
2022-09-22T09:48:12.077Z,0.80
2022-09-22T09:49:55.240Z,0.55
2022-09-22T09:51:40.188Z,0.43
2022-09-22T09:53:31.292Z,0.22
2022-09-22T09:55:20.353Z,0.60
2022-09-22T09:57:04.563Z,0.55
2022-09-22T09:58:55.651Z,0.60
2022-09-22T10:00:53.951Z,0.40
2022-09-22T10:02:38.384Z,0.60
2022-09-22T10:04:29.800Z,0.43
2022-09-22T10:06:13.149Z,0.63
2022-09-22T10:07:57.752Z,0.60
2022-09-22T10:09:39.890Z,0.40
2022-09-22T10:13:26.071Z,0.52
2022-09-22T10:15:23.425Z,0.50
2022-09-22T10:17:20.525Z,0.47
2022-09-22T10:19:05.705Z,0.73
2022-09-22T10:21:02.400Z,0.63
2022-09-22T10:22:45.522Z,0.50
2022-09-22T10:24:30.261Z,0.38
2022-09-22T10:26:18.248Z,0.60
2022-09-22T10:28:03.177Z,1.13
2022-09-22T10:29:44.962Z,0.47
2022-09-22T10:31:26.720Z,0.45
2022-09-22T10:33:14.382Z,0.45
2022-09-22T10:34:56.207Z,0.50
2022-09-22T10:36:44.942Z,0.32
2022-09-22T10:38:28.192Z,0.30
2022-09-22T10:40:16.270Z,0.35
2022-09-22T10:41:59.958Z,0.60
2022-09-22T10:43:46.749Z,0.47
2022-09-22T10:45:41.244Z,0.45
2022-09-22T10:47:28.124Z,0.50
2022-09-22T10:49:12.526Z,0.40
2022-09-22T10:51:00.539Z,0.50
2022-09-22T10:52:48.975Z,0.40
2022-09-22T10:54:54.584Z,0.40
2022-09-22T10:56:39.423Z,0.57
2022-09-22T10:58:26.946Z,0.50
2022-09-22T11:00:15.826Z,0.47
2022-09-22T11:02:11.760Z,0.43
2022-09-22T11:04:13.953Z,0.30
2022-09-22T11:06:12.255Z,0.40
2022-09-22T11:08:05.614Z,0.43
2022-09-22T11:09:57.896Z,0.40
2022-09-22T11:11:48.477Z,0.70
2022-09-22T11:13:39.627Z,0.25
2022-09-22T11:15:41.244Z,0.30
2022-09-22T11:17:33.868Z,0.40
2022-09-22T11:19:32.066Z,0.50
2022-09-22T11:21:27.686Z,0.40
2022-09-22T11:23:38.714Z,0.65
2022-09-22T11:25:38.248Z,0.40
2022-09-22T11:27:26.523Z,0.30
2022-09-22T11:29:35.195Z,0.60
2022-09-22T11:31:30.130Z,0.60
2022-09-22T11:33:42.779Z,0.28
2022-09-22T11:35:42.344Z,0.35
2022-09-22T11:37:37.104Z,1.27
2022-09-22T11:39:35.257Z,2.60
2022-09-22T11:41:30.651Z,1.83
2022-09-22T11:43:34.315Z,1.30
2022-09-22T11:45:34.849Z,1.48
2022-09-22T11:47:37.680Z,1.20
2022-09-22T11:49:33.228Z,1.27
2022-09-22T11:51:41.707Z,1.30
2022-09-22T11:53:36.098Z,0.85
2022-09-22T11:55:26.858Z,1.10
2022-09-22T11:57:13.957Z,1.02
2022-09-22T11:59:00.865Z,0.90
2022-09-22T12:00:47.048Z,0.77
2022-09-22T12:02:35.608Z,1.05
2022-09-22T12:04:25.198Z,0.98
2022-09-22T12:06:10.821Z,1.27
2022-09-22T12:07:57.043Z,0.98
2022-09-22T12:09:45.928Z,1.40
2022-09-22T12:11:28.715Z,1.08
2022-09-22T12:13:15.245Z,1.17
2022-09-22T12:15:03.170Z,1.30
2022-09-22T12:16:54.532Z,0.73
2022-09-22T12:18:42.991Z,0.70
2022-09-22T12:20:36.316Z,1.02
2022-09-22T12:22:25.603Z,0.88
2022-09-22T12:24:09.046Z,1.45
2022-09-22T12:25:53.996Z,1.42
2022-09-22T12:27:36.137Z,0.82
2022-09-22T12:31:08.003Z,1.17
2022-09-22T12:32:51.118Z,0.93
2022-09-22T12:34:36.774Z,0.77
2022-09-22T12:36:28.475Z,0.57
2022-09-22T12:38:12.008Z,0.68
2022-09-22T12:39:54.003Z,1.25
2022-09-22T12:41:44.021Z,0.90
2022-09-22T12:43:27.491Z,0.95
2022-09-22T12:45:18.561Z,1.08
2022-09-22T12:47:03.012Z,0.77
2022-09-22T12:48:46.267Z,0.98
2022-09-22T12:50:36.522Z,1.23
2022-09-22T12:52:57.163Z,0.88
2022-09-22T12:54:39.039Z,0.82
2022-09-22T12:56:43.848Z,0.95
2022-09-22T12:58:42.385Z,0.70
2022-09-22T13:00:33.783Z,0.73
2022-09-22T13:02:28.443Z,0.60
2022-09-22T13:04:16.585Z,0.75
2022-09-22T13:06:00.005Z,0.85
2022-09-22T13:07:42.662Z,1.35
2022-09-22T13:09:26.465Z,1.42
2022-09-22T13:11:09.638Z,0.88
2022-09-22T13:13:09.389Z,0.98
2022-09-22T13:15:15.003Z,0.80
2022-09-22T13:16:58.141Z,0.90
2022-09-22T13:18:41.835Z,0.95
2022-09-22T13:20:29.632Z,0.63
2022-09-22T13:22:17.310Z,0.90
2022-09-22T13:24:01.123Z,0.70
2022-09-22T13:25:42.843Z,0.80
2022-09-22T13:27:24.553Z,0.90
2022-09-22T13:29:11.937Z,0.52
2022-09-22T13:31:03.575Z,1.00
2022-09-22T13:32:49.985Z,0.75
2022-09-22T13:34:33.425Z,0.70
2022-09-22T13:36:17.846Z,1.00
2022-09-22T13:37:59.970Z,0.80
2022-09-22T13:41:39.956Z,0.60
2022-09-22T13:43:28.011Z,0.70
2022-09-22T13:45:20.298Z,0.77
2022-09-22T13:47:06.020Z,0.75
2022-09-22T13:48:50.531Z,1.38
2022-09-22T13:50:37.302Z,0.60
2022-09-22T13:52:21.981Z,0.60
2022-09-22T13:54:04.557Z,1.00
2022-09-22T13:55:49.358Z,0.68
2022-09-22T13:57:33.790Z,0.70
2022-09-22T13:59:17.474Z,0.77
2022-09-22T14:01:15.556Z,1.23
2022-09-22T14:02:58.654Z,0.70
2022-09-22T14:04:50.252Z,0.93
2022-09-22T14:06:33.053Z,0.60
2022-09-22T14:08:20.148Z,0.95
2022-09-22T14:10:03.486Z,0.60
2022-09-22T14:11:45.582Z,1.27
2022-09-22T14:15:41.194Z,0.40
2022-09-22T14:17:27.089Z,1.05
2022-09-22T14:19:15.194Z,0.57
2022-09-22T14:20:58.947Z,0.70
2022-09-22T14:22:42.533Z,0.50
2022-09-22T14:24:24.770Z,0.90
2022-09-22T14:26:24.001Z,0.77
2022-09-22T14:28:06.023Z,0.88
2022-09-22T14:29:49.816Z,0.95
2022-09-22T14:31:32.501Z,0.70
2022-09-22T14:33:18.479Z,0.80
2022-09-22T14:35:02.922Z,1.02
2022-09-22T14:36:48.395Z,0.70
2022-09-22T14:38:35.560Z,0.35
2022-09-22T14:40:19.809Z,1.13
2022-09-22T14:42:09.284Z,0.68
2022-09-22T14:43:51.282Z,0.60
2022-09-22T14:45:33.138Z,0.60
2022-09-22T14:47:22.362Z,0.68
2022-09-22T14:49:38.470Z,0.82
2022-09-22T14:51:24.742Z,0.60
2022-09-22T14:53:15.483Z,0.68
2022-09-22T14:55:01.514Z,0.77
2022-09-22T14:56:44.040Z,0.60
2022-09-22T14:58:27.954Z,0.80
2022-09-22T15:00:14.606Z,0.73
2022-09-22T15:01:56.947Z,0.80
2022-09-22T15:03:41.590Z,0.50
2022-09-22T15:05:29.645Z,0.68
2022-09-22T15:07:25.954Z,0.80
2022-09-22T15:09:22.386Z,0.68
2022-09-22T15:11:04.569Z,0.75
2022-09-22T15:14:40.494Z,0.50
2022-09-22T15:16:39.791Z,0.80
2022-09-22T15:18:21.929Z,0.50
2022-09-22T15:21:45.636Z,0.80
2022-09-22T15:23:30.838Z,0.68
2022-09-22T15:25:16.507Z,0.40
2022-09-22T15:26:58.295Z,1.65
2022-09-22T15:28:40.034Z,0.98
2022-09-22T15:30:22.174Z,0.82
2022-09-22T15:33:45.809Z,0.50
2022-09-22T15:35:27.519Z,0.32
2022-09-22T15:37:12.889Z,0.60
2022-09-22T15:38:58.927Z,0.55
2022-09-22T15:40:42.114Z,0.60
2022-09-22T15:42:24.072Z,0.60
2022-09-22T15:44:05.770Z,0.63
2022-09-22T15:45:48.987Z,0.60
2022-09-22T15:47:30.734Z,0.60
2022-09-22T15:49:16.592Z,0.60
2022-09-22T15:51:01.160Z,0.57
2022-09-22T15:52:43.442Z,0.70
2022-09-22T15:54:25.622Z,0.80
2022-09-22T15:57:55.083Z,0.47
2022-09-22T15:59:36.900Z,1.00
2022-09-22T16:01:18.696Z,0.60
2022-09-22T16:03:00.487Z,0.70
2022-09-22T16:04:42.283Z,0.50
2022-09-22T16:06:23.999Z,0.50
2022-09-22T16:08:05.784Z,0.52
2022-09-22T16:09:47.492Z,0.82
2022-09-22T16:11:30.558Z,0.50
2022-09-22T16:13:12.371Z,0.38
2022-09-22T16:14:54.074Z,0.52
2022-09-22T16:16:36.018Z,0.70
2022-09-22T16:18:17.806Z,0.90
2022-09-22T16:19:59.507Z,0.60
2022-09-22T16:21:49.293Z,0.55
2022-09-22T16:23:31.033Z,0.63
2022-09-22T16:25:13.231Z,0.60
2022-09-22T16:26:56.272Z,0.70
2022-09-22T16:28:38.000Z,0.68
2022-09-22T16:30:21.993Z,0.60
2022-09-22T16:32:07.012Z,0.70
2022-09-22T16:33:51.149Z,1.13
2022-09-22T16:35:32.900Z,0.50
2022-09-22T16:37:14.704Z,0.80
2022-09-22T16:38:56.494Z,0.70
2022-09-22T16:40:38.240Z,0.50
2022-09-22T16:42:23.728Z,0.60
2022-09-22T16:44:05.764Z,0.80
2022-09-22T16:45:47.475Z,0.60
2022-09-22T16:47:29.187Z,0.50
2022-09-22T16:49:12.474Z,0.70
2022-09-22T16:50:54.319Z,0.30
2022-09-22T16:52:36.037Z,0.80
2022-09-22T16:54:18.391Z,0.85
2022-09-22T16:56:00.139Z,0.22
2022-09-22T16:57:43.198Z,0.20
2022-09-22T16:59:24.925Z,0.47
2022-09-22T17:01:06.680Z,0.25
2022-09-22T17:02:48.387Z,0.30
2022-09-22T17:04:30.168Z,0.40
2022-09-22T17:06:14.398Z,0.65
2022-09-22T17:07:56.141Z,1.35
2022-09-22T17:09:37.863Z,3.10
2022-09-22T17:11:21.276Z,2.75
2022-09-22T17:13:04.390Z,1.90
2022-09-22T17:14:46.128Z,2.10
2022-09-22T17:16:29.445Z,1.10
2022-09-22T17:18:11.191Z,1.00
2022-09-22T17:19:52.917Z,0.80
2022-09-22T17:21:36.704Z,0.95
2022-09-22T17:23:18.427Z,1.08
2022-09-22T17:25:00.162Z,1.08
2022-09-22T17:26:44.188Z,0.80
2022-09-22T17:28:28.903Z,1.20
2022-09-22T17:30:11.382Z,1.40
2022-09-22T17:31:54.470Z,1.55
2022-09-22T17:33:37.367Z,1.10
2022-09-22T17:35:19.505Z,1.30
2022-09-22T17:38:43.090Z,1.20
2022-09-22T17:40:24.900Z,1.17
2022-09-22T17:42:06.762Z,1.20
2022-09-22T17:43:51.518Z,1.08
2022-09-22T17:45:33.236Z,1.23
2022-09-22T17:47:14.938Z,1.58
2022-09-22T17:48:56.740Z,1.00
2022-09-22T17:50:38.613Z,1.15
2022-09-22T17:52:20.554Z,1.10
2022-09-22T17:54:02.280Z,1.23
2022-09-22T17:55:44.022Z,1.38
2022-09-22T17:57:27.406Z,1.05
2022-09-22T17:59:10.448Z,1.05
2022-09-22T18:00:52.169Z,1.27
2022-09-22T18:02:34.775Z,1.00
2022-09-22T18:04:16.516Z,1.10
2022-09-22T18:05:58.232Z,1.05
2022-09-22T18:07:40.962Z,1.00
2022-09-22T18:09:22.684Z,0.93
2022-09-22T18:11:04.674Z,1.00
2022-09-22T18:12:46.382Z,0.80
2022-09-22T18:14:29.560Z,0.85
2022-09-22T18:16:19.647Z,1.15
2022-09-22T18:18:01.380Z,0.70
2022-09-22T18:19:43.579Z,1.10
2022-09-22T18:21:25.306Z,0.88
2022-09-22T18:23:07.040Z,0.80
2022-09-22T18:24:50.386Z,0.70
2022-09-22T18:26:32.410Z,0.68
2022-09-22T18:28:14.112Z,0.80
2022-09-22T18:29:57.223Z,1.08
2022-09-22T18:31:39.172Z,0.95
2022-09-22T18:33:20.968Z,0.90
2022-09-22T18:35:02.985Z,0.80
2022-09-22T18:36:44.836Z,0.80
2022-09-22T18:38:26.557Z,0.75
2022-09-22T18:40:09.468Z,0.70
2022-09-22T18:41:51.351Z,0.85
2022-09-22T18:43:34.134Z,0.80
2022-09-22T18:45:17.367Z,1.05
2022-09-22T18:46:59.090Z,0.65
2022-09-22T18:48:40.799Z,0.75
2022-09-22T18:50:22.512Z,0.70
2022-09-22T18:52:04.332Z,0.98
2022-09-22T18:53:46.068Z,0.82
2022-09-22T18:55:28.023Z,0.73
2022-09-22T18:57:10.210Z,0.70
2022-09-22T18:58:53.619Z,0.80
2022-09-22T19:00:36.666Z,0.70
2022-09-22T19:02:18.818Z,0.80
2022-09-22T19:04:01.268Z,0.80
2022-09-22T19:05:43.010Z,0.80
2022-09-22T19:07:24.805Z,0.45
2022-09-22T19:09:06.600Z,0.85
2022-09-22T19:10:48.439Z,0.85
2022-09-22T19:12:30.162Z,0.70
2022-09-22T19:14:11.917Z,1.05
2022-09-22T19:15:57.920Z,0.50
2022-09-22T19:17:40.774Z,0.55
2022-09-22T19:19:22.627Z,0.60
2022-09-22T19:21:04.575Z,0.75
2022-09-22T19:22:46.440Z,0.77
2022-09-22T19:24:28.158Z,0.80
2022-09-22T19:26:09.873Z,1.02
2022-09-22T19:27:51.902Z,0.50
2022-09-22T19:29:33.815Z,0.68
2022-09-22T19:31:16.937Z,0.70
2022-09-22T19:32:58.770Z,0.90
2022-09-22T19:34:40.503Z,0.57
2022-09-22T19:36:22.214Z,0.65
2022-09-22T19:38:04.224Z,0.65
2022-09-22T19:41:27.753Z,1.67
2022-09-22T19:43:09.480Z,0.65
2022-09-22T19:44:51.489Z,0.50
2022-09-22T19:48:16.347Z,0.50
2022-09-22T19:49:58.079Z,0.90
2022-09-22T19:51:40.534Z,0.82
2022-09-22T19:53:22.299Z,0.82
2022-09-22T19:55:04.846Z,0.77
2022-09-22T19:56:46.883Z,0.75
2022-09-22T19:58:28.595Z,0.77
2022-09-22T20:00:13.077Z,0.75
2022-09-22T20:01:56.265Z,0.93
2022-09-22T20:03:38.061Z,0.90
2022-09-22T20:05:21.269Z,0.55
2022-09-22T20:07:03.104Z,0.60
2022-09-22T20:08:44.844Z,0.80
2022-09-22T20:10:26.882Z,0.60
2022-09-22T20:13:50.318Z,0.77
2022-09-22T20:15:32.049Z,0.75
2022-09-22T20:17:15.671Z,0.70
2022-09-22T20:18:57.414Z,0.73
2022-09-22T20:20:39.126Z,0.80
2022-09-22T20:22:23.374Z,0.70
2022-09-22T20:24:05.633Z,0.57
2022-09-22T20:25:48.030Z,0.65
2022-09-22T20:27:31.418Z,0.77
2022-09-22T20:29:14.185Z,0.80
2022-09-22T20:30:55.968Z,0.68
2022-09-22T20:32:39.039Z,0.60
2022-09-22T20:34:20.897Z,0.50
2022-09-22T20:36:02.769Z,0.90
2022-09-22T20:37:44.931Z,0.68
2022-09-22T20:41:17.913Z,0.70
2022-09-22T20:42:59.625Z,0.40
2022-09-22T20:44:41.367Z,0.52
2022-09-22T20:46:23.115Z,0.50
2022-09-22T20:48:06.226Z,0.70
2022-09-22T20:49:51.605Z,0.47
2022-09-22T20:51:33.732Z,0.65
2022-09-22T20:53:15.437Z,0.70
2022-09-22T20:54:57.488Z,0.52
2022-09-22T20:58:24.707Z,0.43
2022-09-22T21:00:07.431Z,0.60
2022-09-22T21:01:49.250Z,0.43
2022-09-22T21:03:32.535Z,0.50
2022-09-22T21:05:14.322Z,0.70
2022-09-22T21:06:56.153Z,0.50
2022-09-22T21:08:39.022Z,0.65
2022-09-22T21:10:20.751Z,0.70
2022-09-22T21:12:02.472Z,0.75
2022-09-22T21:13:44.624Z,0.43
2022-09-22T21:17:08.089Z,0.87
2022-09-22T21:18:51.148Z,0.60
2022-09-22T21:20:32.871Z,0.60
2022-09-22T21:22:15.178Z,0.80
2022-09-22T21:23:57.930Z,0.90
2022-09-22T21:25:39.738Z,1.08
2022-09-22T21:27:21.501Z,0.50
2022-09-22T21:29:03.487Z,0.77
2022-09-22T21:30:54.551Z,0.60
2022-09-22T21:32:36.282Z,0.60
2022-09-22T21:34:19.376Z,0.50
2022-09-22T21:36:02.798Z,0.70
2022-09-22T21:37:44.505Z,0.80
2022-09-22T21:39:26.209Z,0.75
2022-09-22T21:41:09.387Z,0.60
2022-09-22T21:42:51.098Z,0.63
2022-09-22T21:44:32.812Z,0.57
2022-09-22T21:46:16.463Z,0.85
2022-09-22T21:47:58.209Z,0.60
2022-09-22T21:49:41.284Z,0.63
2022-09-22T21:51:23.008Z,0.45
2022-09-22T21:53:04.711Z,0.60
2022-09-22T21:54:46.412Z,0.63
2022-09-22T21:56:28.581Z,0.80
2022-09-22T21:59:56.529Z,0.60
2022-09-22T22:01:40.534Z,0.68
2022-09-22T22:03:22.821Z,0.90
2022-09-22T22:05:06.397Z,0.73
2022-09-22T22:06:48.475Z,0.60
2022-09-22T22:10:18.150Z,0.90
2022-09-22T22:11:59.925Z,0.50
2022-09-22T22:13:43.257Z,0.40
2022-09-22T22:15:24.991Z,0.73
2022-09-22T22:17:06.736Z,0.60
2022-09-22T22:18:48.951Z,0.55
2022-09-22T22:20:32.183Z,0.60
2022-09-22T22:22:14.055Z,0.90
2022-09-22T22:23:57.167Z,0.65
2022-09-22T22:25:38.907Z,0.75
2022-09-22T22:27:20.735Z,0.52
2022-09-22T22:29:02.478Z,0.82
2022-09-22T22:30:44.232Z,0.68
2022-09-22T22:32:25.995Z,0.70
2022-09-22T22:34:09.730Z,0.60
2022-09-22T22:35:55.373Z,0.55
2022-09-22T22:37:37.111Z,0.35
2022-09-22T22:39:19.541Z,0.65
2022-09-22T22:41:02.362Z,0.50
2022-09-22T22:42:44.269Z,0.70
2022-09-22T22:44:26.075Z,0.90
2022-09-22T22:46:09.276Z,1.08
2022-09-22T22:47:51.042Z,0.77
2022-09-22T22:49:32.783Z,0.60
2022-09-22T22:51:17.595Z,0.57
2022-09-22T22:52:59.809Z,0.95
2022-09-22T22:54:41.543Z,0.85
2022-09-22T22:56:25.710Z,0.68
2022-09-22T22:58:07.843Z,0.70
2022-09-22T23:01:32.402Z,1.20
2022-09-22T23:03:14.311Z,0.70
2022-09-22T23:04:56.078Z,0.63
2022-09-22T23:06:41.071Z,0.50
2022-09-22T23:08:22.910Z,0.63
2022-09-22T23:10:05.424Z,0.68
2022-09-22T23:11:47.146Z,0.77
2022-09-22T23:13:29.960Z,0.70
2022-09-22T23:15:11.662Z,0.32
2022-09-22T23:16:54.010Z,0.30
2022-09-22T23:18:37.397Z,0.55
2022-09-22T23:20:19.608Z,0.73
2022-09-22T23:22:02.658Z,0.70
2022-09-22T23:23:45.379Z,0.63
2022-09-22T23:25:27.075Z,0.70
2022-09-22T23:27:08.794Z,0.95
2022-09-22T23:28:50.855Z,0.70
2022-09-22T23:32:14.903Z,0.50
2022-09-22T23:33:56.698Z,0.68
2022-09-22T23:35:38.972Z,1.13
2022-09-22T23:37:22.564Z,0.60
2022-09-22T23:39:05.092Z,0.50
2022-09-22T23:40:46.996Z,0.50
2022-09-22T23:42:28.762Z,0.50
2022-09-22T23:44:10.994Z,0.40
2022-09-22T23:45:53.243Z,0.60
2022-09-22T23:47:34.972Z,0.93
2022-09-22T23:49:16.686Z,0.52
2022-09-22T23:50:59.623Z,0.45
2022-09-22T23:52:42.684Z,0.45
2022-09-22T23:54:24.395Z,0.70
2022-09-22T23:56:07.139Z,0.63
2022-09-22T23:57:48.852Z,0.88
2022-09-22T23:59:30.601Z,0.75
